Time;durP1;ratioP1;P1;durP2;ratioP2;P2;SDS_P1;SDS_P2;PMS_P1;PMS_P2;Temp;Humidity;BMP_temperature;BMP_pressure;BME280_temperature;BME280_humidity;BME280_pressure;Samples;Min_cycle;Max_cycle;Signal;HPM_P1;HPM_P2
2023/01/22 00:01:11;;;;;;;8.57;1.90;;;;;;;7.72;100.00;101594.75;5056238;28;20029;-82
2023/01/22 00:03:39;;;;;;;13.43;1.95;;;;;;;7.75;100.00;101585.78;5028157;28;20396;-81
2023/01/22 00:06:05;;;;;;;10.32;1.60;;;;;;;7.71;100.00;101579.88;5064879;28;20036;-81
2023/01/22 00:08:32;;;;;;;9.80;1.95;;;;;;;7.74;100.00;101579.66;5058702;28;20029;-81
2023/01/22 00:10:58;;;;;;;9.45;1.70;;;;;;;7.69;100.00;101579.13;5062242;28;20484;-82
2023/01/22 00:13:25;;;;;;;11.68;3.10;;;;;;;7.69;100.00;101568.63;5065105;28;20051;-82
2023/01/22 00:15:51;;;;;;;8.45;1.60;;;;;;;7.68;100.00;101554.59;5051182;28;20405;-82
2023/01/22 00:18:18;;;;;;;11.60;1.50;;;;;;;7.71;100.00;101550.09;5063973;28;20032;-82
2023/01/22 00:20:52;;;;;;;8.98;1.60;;;;;;;7.71;100.00;101558.81;5024918;28;20432;-82
2023/01/22 00:23:18;;;;;;;12.48;1.45;;;;;;;7.68;100.00;101556.38;5025346;28;20052;-81
2023/01/22 00:25:45;;;;;;;9.95;2.22;;;;;;;7.65;100.00;101554.78;5014437;28;20871;-82
2023/01/22 00:28:11;;;;;;;7.13;1.40;;;;;;;7.66;100.00;101559.09;5016290;28;20552;-82
2023/01/22 00:30:42;;;;;;;5.25;1.10;;;;;;;7.68;100.00;101559.00;5030709;28;20558;-81
2023/01/22 00:33:08;;;;;;;10.88;1.80;;;;;;;7.63;100.00;101551.41;4995097;28;20370;-81
2023/01/22 00:35:34;;;;;;;7.22;1.45;;;;;;;7.65;100.00;101559.22;5051280;28;20031;-82
2023/01/22 00:38:00;;;;;;;11.63;2.20;;;;;;;7.63;100.00;101554.03;5020447;28;20033;-82
2023/01/22 00:40:26;;;;;;;5.28;1.20;;;;;;;7.65;100.00;101556.56;5027993;28;20060;-82
2023/01/22 00:42:51;;;;;;;8.77;1.52;;;;;;;7.66;100.00;101556.47;5038975;28;20043;-82
2023/01/22 00:45:17;;;;;;;8.23;1.23;;;;;;;7.65;100.00;101560.06;5037688;28;20103;-82
2023/01/22 00:47:43;;;;;;;11.60;1.60;;;;;;;7.65;100.00;101573.22;5027471;28;20049;-82
2023/01/22 00:50:09;;;;;;;8.52;1.77;;;;;;;7.65;100.00;101570.59;5037875;28;20036;-82
2023/01/22 00:52:36;;;;;;;11.20;1.50;;;;;;;7.64;100.00;101573.31;5034479;28;20037;-82
2023/01/22 00:55:03;;;;;;;10.82;1.88;;;;;;;7.66;100.00;101556.47;5031204;28;20497;-82
2023/01/22 00:57:29;;;;;;;10.77;1.90;;;;;;;7.65;100.00;101560.06;5010349;28;20044;-82
2023/01/22 00:59:56;;;;;;;10.40;1.70;;;;;;;7.66;100.00;101563.53;5034009;28;20107;-82
2023/01/22 01:02:21;;;;;;;12.57;1.45;;;;;;;7.68;100.00;101549.34;5023681;28;20041;-82
2023/01/22 01:04:48;;;;;;;7.65;1.65;;;;;;;7.66;100.00;101553.84;5031815;28;20029;-81
2023/01/22 01:07:15;;;;;;;13.52;1.63;;;;;;;7.64;100.00;101547.00;5025919;28;20045;-81
2023/01/22 01:09:43;;;;;;;13.07;1.85;;;;;;;7.64;100.00;101544.38;5051738;28;20057;-82
2023/01/22 01:12:09;;;;;;;14.18;1.48;;;;;;;7.64;100.00;101542.59;5050083;28;20122;-82
2023/01/22 01:14:35;;;;;;;8.95;1.40;;;;;;;7.64;100.00;101544.38;5018990;28;20025;-82
2023/01/22 01:17:02;;;;;;;14.80;1.73;;;;;;;7.66;100.00;101547.75;5037984;28;20183;-82
2023/01/22 01:19:27;;;;;;;8.02;1.20;;;;;;;7.66;100.00;101545.13;5028252;28;20097;-82
2023/01/22 01:21:53;;;;;;;10.13;1.17;;;;;;;7.64;100.00;101552.25;5046246;28;20053;-82
2023/01/22 01:24:19;;;;;;;8.30;1.27;;;;;;;7.64;100.00;101552.25;5088956;28;20035;-81
2023/01/22 01:26:45;;;;;;;8.68;1.42;;;;;;;7.65;100.00;101538.16;5050311;28;20044;-81
2023/01/22 01:29:11;;;;;;;8.50;1.38;;;;;;;7.64;100.00;101521.53;5049153;28;20033;-82
2023/01/22 01:31:37;;;;;;;6.45;1.60;;;;;;;7.67;100.00;101523.13;5053708;28;20138;-81
2023/01/22 01:34:03;;;;;;;8.75;1.48;;;;;;;7.64;100.00;101518.06;5032690;28;20489;-82
2023/01/22 01:36:29;;;;;;;10.32;1.38;;;;;;;7.65;100.00;101511.84;5045467;28;20043;-82
2023/01/22 01:38:55;;;;;;;6.28;1.10;;;;;;;7.61;100.00;101523.53;5045586;28;20119;-82
2023/01/22 01:41:24;;;;;;;9.48;1.60;;;;;;;7.62;100.00;101523.41;5041933;28;21101;-82
2023/01/22 01:44:08;;;;;;;13.18;1.20;;;;;;;7.65;100.00;101515.31;5042344;28;20109;-82
2023/01/22 01:46:41;;;;;;;6.32;1.42;;;;;;;7.64;100.00;101518.06;5071096;28;20032;-81
2023/01/22 01:49:17;;;;;;;11.50;1.38;;;;;;;7.66;100.00;101519.63;5070472;28;20137;-82
2023/01/22 01:51:42;;;;;;;9.43;1.20;;;;;;;7.62;100.00;101519.94;5032431;28;20049;-82
2023/01/22 01:54:10;;;;;;;10.82;1.30;;;;;;;7.64;100.00;101518.06;5041319;28;20377;-82
2023/01/22 01:56:41;;;;;;;5.80;1.27;;;;;;;7.65;100.00;101517.09;5069786;28;20598;-82
2023/01/22 01:59:11;;;;;;;12.85;1.50;;;;;;;7.65;100.00;101515.31;5067151;28;20029;-82
2023/01/22 02:01:38;;;;;;;9.10;1.23;;;;;;;7.61;100.00;101511.22;5046336;28;20366;-82
2023/01/22 02:04:04;;;;;;;7.20;1.17;;;;;;;7.62;100.00;101504.16;5032750;28;20218;-81
2023/01/22 02:06:30;;;;;;;8.90;1.40;;;;;;;7.65;100.00;101506.56;5053959;28;20039;-82
2023/01/22 02:08:57;;;;;;;12.55;1.42;;;;;;;7.65;100.00;101506.56;5044580;28;20580;-82
2023/01/22 02:11:24;;;;;;;7.72;1.73;;;;;;;7.65;100.00;101498.69;5029204;28;20067;-81
2023/01/22 02:13:55;;;;;;;5.65;1.02;;;;;;;7.67;100.00;101502.06;5036649;28;20110;-82
2023/01/22 02:16:21;;;;;;;11.10;1.30;;;;;;;7.65;100.00;101509.22;5038865;28;20075;-82
2023/01/22 02:18:48;;;;;;;9.00;1.45;;;;;;;7.63;100.00;101503.22;5029821;28;20069;-82
2023/01/22 02:21:40;;;;;;;13.23;1.60;;;;;;;7.67;100.00;101500.28;5074971;28;20114;-82
2023/01/22 02:24:13;;;;;;;5.75;1.10;;;;;;;7.66;100.00;101498.59;5068714;28;20029;-82
2023/01/22 02:26:41;;;;;;;2.88;0.60;;;;;;;7.63;100.00;101492.69;5042947;28;20063;-82
2023/01/22 02:29:10;;;;;;;6.07;1.20;;;;;;;7.65;100.00;101488.16;5065193;28;20036;-83
2023/01/22 02:31:38;;;;;;;5.88;0.90;;;;;;;7.66;100.00;101485.44;5038455;28;20399;-82
2023/01/22 02:34:05;;;;;;;5.57;0.85;;;;;;;7.66;100.00;101474.91;5044477;28;20076;-82
2023/01/22 02:36:33;;;;;;;6.63;1.10;;;;;;;7.66;100.00;101474.91;5065875;28;20033;-82
2023/01/22 02:38:59;;;;;;;6.05;1.17;;;;;;;7.66;100.00;101468.81;5040210;28;20093;-82
2023/01/22 02:41:26;;;;;;;4.60;0.80;;;;;;;7.67;100.00;101460.81;5030158;28;20032;-82
2023/01/22 02:43:52;;;;;;;4.28;0.98;;;;;;;7.67;100.00;101466.09;5052611;28;20111;-82
2023/01/22 02:46:20;;;;;;;4.03;0.50;;;;;;;7.66;100.00;101460.91;5048677;28;20036;-82
2023/01/22 02:48:46;;;;;;;2.88;0.77;;;;;;;7.67;100.00;101462.59;5046884;28;20036;-82
2023/01/22 02:51:13;;;;;;;6.65;0.85;;;;;;;7.67;100.00;101465.22;5034397;28;20053;-82
2023/01/22 02:53:42;;;;;;;3.35;0.70;;;;;;;7.68;100.00;101467.75;5027631;28;20488;-82
2023/01/22 02:56:09;;;;;;;3.40;0.80;;;;;;;7.71;100.00;101465.88;5061372;28;20041;-82
2023/01/22 02:58:36;;;;;;;3.47;1.20;;;;;;;7.67;100.00;101446.81;5027974;28;20027;-82
2023/01/22 03:01:19;;;;;;;4.90;0.65;;;;;;;7.71;100.00;101453.53;5064204;28;20032;-82
2023/01/22 03:03:53;;;;;;;3.95;0.70;;;;;;;7.69;100.00;101463.34;5049158;28;20032;-82
2023/01/22 03:06:21;;;;;;;5.43;1.42;;;;;;;7.67;100.00;101450.28;5042006;28;20480;-82
2023/01/22 03:08:55;;;;;;;5.88;1.08;;;;;;;7.67;100.00;101455.56;5034301;28;20028;-82
2023/01/22 03:11:22;;;;;;;7.32;0.90;;;;;;;7.68;100.00;101451.13;5009326;28;20037;-82
2023/01/22 03:22:08;;;;;;;8.25;0.70;;;;;;;7.65;100.00;101461.84;5055656;28;20085;-82
2023/01/22 03:24:33;;;;;;;4.97;1.00;;;;;;;7.66;100.00;101468.81;5024141;28;20147;-82
2023/01/22 03:27:00;;;;;;;3.38;0.57;;;;;;;7.65;100.00;101478.50;5039746;28;20029;-81
2023/01/22 03:29:28;;;;;;;6.80;0.90;;;;;;;7.64;100.00;101478.59;5056902;28;20036;-82
2023/01/22 03:31:54;;;;;;;2.38;0.70;;;;;;;7.63;100.00;101475.09;5012771;28;20036;-82
2023/01/22 03:34:24;;;;;;;5.85;0.80;;;;;;;7.69;100.00;101451.00;5014616;28;20557;-81
2023/01/22 03:36:51;;;;;;;5.32;0.65;;;;;;;7.66;100.00;101427.53;5048697;28;20043;-82
2023/01/22 03:39:18;;;;;;;3.80;0.60;;;;;;;7.66;100.00;101403.03;5050284;28;20106;-82
2023/01/22 03:41:44;;;;;;;3.67;0.70;;;;;;;7.67;100.00;101404.72;5040803;28;20571;-82
2023/01/22 03:44:10;;;;;;;6.97;0.68;;;;;;;7.66;100.00;101414.38;5036944;28;20040;-82
2023/01/22 03:46:41;;;;;;;4.53;1.25;;;;;;;7.69;100.00;101427.34;5009761;28;20110;-81
2023/01/22 03:49:08;;;;;;;7.10;1.10;;;;;;;7.69;100.00;101445.75;5039781;28;20028;-82
2023/01/22 03:51:35;;;;;;;3.33;1.00;;;;;;;7.73;100.00;101456.94;5029571;28;20040;-82
2023/01/22 03:54:01;;;;;;;4.57;0.82;;;;;;;7.74;100.00;101450.72;5019891;28;20040;-82
2023/01/22 03:56:27;;;;;;;5.20;0.82;;;;;;;7.75;100.00;101443.66;5047261;28;20062;-82
2023/01/22 03:58:58;;;;;;;4.75;0.80;;;;;;;7.79;100.00;101460.94;5030397;28;20120;-82
2023/01/22 04:01:26;;;;;;;3.00;0.68;;;;;;;7.80;100.00;101467.91;5037575;28;20040;-81
2023/01/22 04:03:54;;;;;;;4.65;1.15;;;;;;;7.80;100.00;101473.16;5031703;28;20434;-81
2023/01/22 04:06:23;;;;;;;7.10;0.90;;;;;;;7.78;100.00;101464.53;5043433;28;20033;-81
2023/01/22 04:08:50;;;;;;;3.95;1.00;;;;;;;7.81;100.00;101456.44;5059009;28;20052;-81
2023/01/22 04:11:17;;;;;;;4.25;0.90;;;;;;;7.78;100.00;101435.56;5045150;28;20432;-81
2023/01/22 04:13:43;;;;;;;10.35;0.90;;;;;;;7.78;100.00;101425.91;5068725;28;20024;-81
2023/01/22 04:16:11;;;;;;;5.28;1.00;;;;;;;7.79;100.00;101414.41;5039104;28;20030;-81
2023/01/22 04:18:55;;;;;;;4.05;0.93;;;;;;;7.77;100.00;101408.41;5065958;28;20044;-81
2023/01/22 04:21:30;;;;;;;4.97;0.95;;;;;;;7.75;100.00;101412.09;5052452;28;20374;-81
2023/01/22 04:23:58;;;;;;;4.95;1.13;;;;;;;7.74;100.00;101419.13;5056330;28;20510;-81
2023/01/22 04:26:24;;;;;;;5.22;0.90;;;;;;;7.73;100.00;101427.13;5037584;28;20665;-81
2023/01/22 04:28:51;;;;;;;3.67;0.73;;;;;;;7.73;100.00;101429.75;5035393;28;20809;-82
2023/01/22 04:31:20;;;;;;;6.05;1.13;;;;;;;7.74;100.00;101442.81;5034200;28;20442;-82
2023/01/22 04:34:19;;;;;;;5.18;1.15;;;;;;;7.75;100.00;101449.78;5015119;28;20135;-82
2023/01/22 04:36:54;;;;;;;8.52;1.13;;;;;;;7.76;100.00;101454.09;5051107;28;20028;-81
2023/01/22 04:39:20;;;;;;;3.25;0.75;;;;;;;7.79;100.00;101461.78;5055043;28;20043;-81
2023/01/22 04:41:46;;;;;;;5.88;0.80;;;;;;;7.81;100.00;101467.81;5050053;28;20028;-81
2023/01/22 04:44:12;;;;;;;4.75;0.90;;;;;;;7.85;100.00;101464.97;5038431;28;20045;-81
2023/01/22 04:46:40;;;;;;;6.75;0.70;;;;;;;7.83;100.00;101467.72;5034152;28;20480;-81
2023/01/22 04:49:07;;;;;;;3.22;0.60;;;;;;;7.85;100.00;101472.88;5041597;28;20549;-81
2023/01/22 04:51:34;;;;;;;4.88;0.70;;;;;;;7.89;100.00;101482.25;5049529;28;20037;-81
2023/01/22 04:53:59;;;;;;;4.15;0.98;;;;;;;7.89;100.00;101487.50;5045329;28;20032;-81
2023/01/22 04:56:26;;;;;;;6.95;0.90;;;;;;;7.90;100.00;101491.84;5031577;28;20041;-81
2023/01/22 04:58:52;;;;;;;6.53;0.75;;;;;;;7.91;100.00;101497.00;5028905;28;20032;-82
2023/01/22 05:01:19;;;;;;;7.45;0.80;;;;;;;7.92;100.00;101479.41;5043138;28;20037;-82
2023/01/22 05:03:45;;;;;;;9.43;1.63;;;;;;;7.91;100.00;101473.31;5026161;28;20036;-81
2023/01/22 05:06:10;;;;;;;5.28;0.77;;;;;;;7.92;100.00;101469.72;5026660;28;20048;-80
2023/01/22 05:08:38;;;;;;;4.90;1.00;;;;;;;7.91;100.00;101465.41;5025302;28;20109;-80
2023/01/22 05:11:04;;;;;;;10.70;0.88;;;;;;;7.92;100.00;101467.09;5058535;28;20489;-80
2023/01/22 05:13:41;;;;;;;8.70;1.25;;;;;;;7.91;100.00;101470.69;5074836;28;20029;-79
2023/01/22 05:16:07;;;;;;;5.28;0.80;;;;;;;7.89;100.00;101469.94;5014477;28;20434;-79
2023/01/22 05:18:34;;;;;;;7.50;0.90;;;;;;;7.88;100.00;101468.25;5065791;28;20037;-80
2023/01/22 05:21:00;;;;;;;4.95;0.80;;;;;;;7.91;100.00;101475.09;5062366;28;20441;-81
2023/01/22 05:23:28;;;;;;;6.78;1.00;;;;;;;7.89;100.00;101466.44;5068312;28;20040;-80
2023/01/22 05:25:54;;;;;;;6.18;1.05;;;;;;;7.89;100.00;101461.19;5045853;28;20123;-79
2023/01/22 05:28:31;;;;;;;4.38;1.15;;;;;;;7.90;100.00;101458.44;5008651;28;20037;-79
2023/01/22 05:31:15;;;;;;;6.75;0.75;;;;;;;7.93;100.00;101446.88;5041164;28;20037;-79
2023/01/22 05:33:48;;;;;;;4.55;0.80;;;;;;;7.91;100.00;101467.19;4979365;28;20493;-80
2023/01/22 05:36:14;;;;;;;3.45;0.70;;;;;;;7.90;100.00;101470.78;5045612;28;20473;-80
2023/01/22 05:38:41;;;;;;;4.00;0.52;;;;;;;7.90;100.00;101470.78;5056880;28;20040;-80
2023/01/22 05:41:08;;;;;;;2.92;0.43;;;;;;;7.89;100.00;101474.34;5044660;28;20045;-80
2023/01/22 05:43:37;;;;;;;4.35;0.80;;;;;;;7.89;100.00;101464.66;5049336;28;20036;-80
2023/01/22 05:46:04;;;;;;;5.30;0.70;;;;;;;7.90;100.00;101466.34;5036773;28;20032;-80
2023/01/22 05:48:50;;;;;;;5.28;0.60;;;;;;;7.90;100.00;101474.25;5061854;28;20067;-80
2023/01/22 05:51:20;;;;;;;3.45;0.82;;;;;;;7.87;100.00;101474.44;5051146;28;20103;-80
2023/01/22 05:53:46;;;;;;;6.07;1.02;;;;;;;7.90;100.00;101478.69;5056403;28;20047;-80
2023/01/22 05:56:12;;;;;;;7.57;0.75;;;;;;;7.88;100.00;101488.47;5030211;28;20079;-80
2023/01/22 05:58:39;;;;;;;3.90;0.60;;;;;;;7.89;100.00;101490.13;5043406;28;20037;-80
2023/01/22 06:01:05;;;;;;;3.55;0.60;;;;;;;7.90;100.00;101494.47;5063720;28;20095;-80
2023/01/22 06:03:38;;;;;;;2.30;0.65;;;;;;;7.91;100.00;101493.53;5038644;28;20029;-80
2023/01/22 06:06:09;;;;;;;5.30;0.70;;;;;;;7.94;100.00;101490.69;5046091;28;20502;-81
2023/01/22 06:08:36;;;;;;;2.00;0.60;;;;;;;7.94;100.00;101494.16;5057582;28;20600;-80
2023/01/22 06:11:04;;;;;;;3.35;0.60;;;;;;;7.94;100.00;101491.53;5044888;28;20032;-81
2023/01/22 06:13:32;;;;;;;3.47;0.60;;;;;;;7.96;100.00;101501.13;5053049;28;20513;-80
2023/01/22 06:16:05;;;;;;;2.40;0.60;;;;;;;7.96;100.00;101499.34;5056315;28;20036;-80
2023/01/22 06:18:54;;;;;;;2.67;0.68;;;;;;;7.94;100.00;101491.53;5049624;28;20032;-80
2023/01/22 06:21:21;;;;;;;7.47;0.90;;;;;;;7.98;100.00;101493.97;5025978;28;20114;-79
2023/01/22 06:23:47;;;;;;;3.25;0.50;;;;;;;7.98;100.00;101493.97;5043537;28;20029;-79
2023/01/22 06:26:13;;;;;;;5.32;1.10;;;;;;;7.97;100.00;101489.63;5048534;28;20037;-79
2023/01/22 06:28:40;;;;;;;9.57;1.08;;;;;;;7.97;100.00;101479.94;5040590;28;20028;-80
2023/01/22 06:31:06;;;;;;;5.70;1.02;;;;;;;7.98;100.00;101479.00;5049958;28;20029;-79
2023/01/22 06:33:35;;;;;;;3.42;0.98;;;;;;;7.99;100.00;101475.44;5049470;28;20032;-79
2023/01/22 06:36:02;;;;;;;4.40;0.70;;;;;;;7.99;100.00;101464.91;5041920;28;20123;-79
2023/01/22 06:38:29;;;;;;;6.25;1.05;;;;;;;7.99;100.00;101457.00;5051416;28;20124;-79
2023/01/22 06:40:58;;;;;;;5.07;0.93;;;;;;;7.99;100.00;101462.28;5058996;28;20079;-79
2023/01/22 06:43:25;;;;;;;8.15;1.05;;;;;;;8.00;100.00;101468.38;5029427;28;20041;-79
2023/01/22 06:45:51;;;;;;;4.78;0.85;;;;;;;7.99;100.00;101467.53;5031374;28;20077;-80
2023/01/22 06:48:20;;;;;;;4.85;0.95;;;;;;;7.99;100.00;101475.44;5025775;28;20039;-79
2023/01/22 06:50:46;;;;;;;4.60;0.95;;;;;;;7.98;100.00;101478.19;5044380;28;20162;-80
2023/01/22 06:53:13;;;;;;;6.38;1.48;;;;;;;7.99;100.00;101477.22;5047191;28;21782;-79
2023/01/22 06:55:38;;;;;;;4.57;0.98;;;;;;;7.99;100.00;101485.97;5030701;28;20084;-79
2023/01/22 06:58:05;;;;;;;10.27;1.27;;;;;;;7.97;100.00;101473.84;5033314;28;20028;-80
2023/01/22 07:00:31;;;;;;;4.47;0.85;;;;;;;7.98;100.00;101484.25;5077022;28;20032;-80
2023/01/22 07:02:57;;;;;;;4.60;1.27;;;;;;;7.99;100.00;101478.06;5049222;28;20037;-79
2023/01/22 07:05:23;;;;;;;5.20;1.02;;;;;;;7.97;100.00;101479.94;5075113;28;20037;-80
2023/01/22 07:07:53;;;;;;;5.95;1.05;;;;;;;8.00;100.00;101487.66;5033517;28;20109;-80
2023/01/22 07:10:19;;;;;;;6.97;0.90;;;;;;;7.98;100.00;101479.00;5047907;28;20496;-81
2023/01/22 07:12:44;;;;;;;3.45;0.90;;;;;;;7.99;100.00;101483.34;5061078;28;20025;-81
2023/01/22 07:15:12;;;;;;;8.00;1.30;;;;;;;8.00;100.00;101478.91;5035302;28;20048;-81
2023/01/22 07:17:37;;;;;;;3.33;0.90;;;;;;;8.00;100.00;101478.91;5045447;28;20033;-81
2023/01/22 07:20:04;;;;;;;5.63;1.17;;;;;;;8.02;100.00;101487.53;5064869;28;20047;-80
2023/01/22 07:22:31;;;;;;;7.20;1.10;;;;;;;8.05;100.00;101500.50;5035757;28;20046;-80
2023/01/22 07:24:57;;;;;;;3.60;0.88;;;;;;;8.05;100.00;101489.97;5038344;28;20045;-80
2023/01/22 07:27:23;;;;;;;3.83;1.05;;;;;;;8.04;100.00;101490.94;5050376;28;20489;-80
2023/01/22 07:29:49;;;;;;;4.82;1.23;;;;;;;8.07;100.00;101494.19;5067881;28;20028;-80
2023/01/22 07:32:15;;;;;;;8.10;1.10;;;;;;;8.06;100.00;101489.88;5040973;28;20036;-80
2023/01/22 07:34:41;;;;;;;3.72;1.10;;;;;;;8.05;100.00;101501.34;5066046;28;20044;-80
2023/01/22 07:37:06;;;;;;;8.90;1.10;;;;;;;8.09;100.00;101503.78;5052464;28;20035;-80
2023/01/22 07:39:32;;;;;;;9.95;1.02;;;;;;;8.08;100.00;101505.56;5045401;28;20035;-80
2023/01/22 07:42:00;;;;;;;6.43;1.10;;;;;;;8.06;100.00;101500.41;5058808;28;20040;-80
2023/01/22 07:44:29;;;;;;;7.25;1.17;;;;;;;8.09;100.00;101512.50;5043452;28;20480;-80
2023/01/22 07:46:54;;;;;;;4.65;1.00;;;;;;;8.10;100.00;101511.59;5066677;28;20022;-80
2023/01/22 07:49:20;;;;;;;3.70;0.80;;;;;;;8.11;100.00;101512.41;5012665;28;20043;-82
2023/01/22 07:51:46;;;;;;;3.25;1.23;;;;;;;8.12;100.00;101511.47;5056621;28;20032;-81
2023/01/22 07:54:11;;;;;;;14.55;2.00;;;;;;;8.13;100.00;101515.78;5032146;28;20029;-80
2023/01/22 07:56:37;;;;;;;7.38;1.42;;;;;;;8.14;100.00;101504.31;5063824;28;20040;-81
2023/01/22 07:59:04;;;;;;;6.57;0.90;;;;;;;8.13;100.00;101508.75;5031679;28;20032;-80
2023/01/22 08:01:30;;;;;;;6.25;1.27;;;;;;;8.13;100.00;101519.28;5046392;28;20127;-79
2023/01/22 08:03:56;;;;;;;5.82;1.30;;;;;;;8.15;100.00;101527.09;5026408;28;20115;-81
2023/01/22 08:06:22;;;;;;;6.78;1.40;;;;;;;8.18;100.00;101529.50;5049638;28;20040;-80
2023/01/22 08:08:48;;;;;;;5.38;1.00;;;;;;;8.17;100.00;101533.91;5043228;28;20094;-80
2023/01/22 08:11:14;;;;;;;5.53;1.30;;;;;;;8.17;100.00;101533.09;5057842;28;20082;-81
2023/01/22 08:13:40;;;;;;;2.90;0.90;;;;;;;8.18;100.00;101530.38;5047341;28;20028;-80
2023/01/22 08:16:08;;;;;;;6.43;1.00;;;;;;;8.18;100.00;101525.09;5064267;28;20047;-81
2023/01/22 08:18:34;;;;;;;5.07;0.88;;;;;;;8.19;100.00;101520.66;5045688;28;20025;-80
2023/01/22 08:21:01;;;;;;;3.80;1.08;;;;;;;8.18;100.00;101522.47;5029125;28;20020;-80
2023/01/22 08:23:27;;;;;;;6.82;1.10;;;;;;;8.18;100.00;101519.84;5048503;28;20048;-80
2023/01/22 08:25:56;;;;;;;3.97;0.98;;;;;;;8.19;100.00;101528.56;5026423;28;20029;-80
2023/01/22 08:28:22;;;;;;;4.22;1.05;;;;;;;8.19;100.00;101539.94;5037661;28;20032;-80
2023/01/22 08:30:48;;;;;;;2.90;0.70;;;;;;;8.22;100.00;101535.44;5065589;28;20575;-81
2023/01/22 08:33:14;;;;;;;9.82;1.02;;;;;;;8.23;100.00;101532.69;5055675;28;20095;-80
2023/01/22 08:35:40;;;;;;;5.90;0.75;;;;;;;8.23;100.00;101537.97;5046513;28;20037;-80
2023/01/22 08:38:06;;;;;;;7.30;0.88;;;;;;;8.24;100.00;101534.38;5041146;28;20759;-80
2023/01/22 08:40:32;;;;;;;4.43;0.98;;;;;;;8.24;100.00;101541.41;5055190;28;20503;-80
2023/01/22 08:42:58;;;;;;;7.30;1.10;;;;;;;8.23;100.00;101539.75;5063081;28;20503;-80
2023/01/22 08:45:23;;;;;;;4.28;0.90;;;;;;;8.23;100.00;101531.84;5049722;28;20055;-80
2023/01/22 08:47:50;;;;;;;2.67;0.70;;;;;;;8.26;100.00;101540.38;5027082;28;20040;-80
2023/01/22 08:50:16;;;;;;;3.60;1.00;;;;;;;8.27;100.00;101534.16;5038804;28;20033;-81
2023/01/22 08:52:42;;;;;;;3.47;0.40;;;;;;;8.29;100.00;101532.28;5039506;28;20082;-81
2023/01/22 08:55:11;;;;;;;2.70;0.60;;;;;;;8.29;100.00;101540.19;5031624;28;20034;-80
2023/01/22 08:57:37;;;;;;;4.25;0.50;;;;;;;8.31;100.00;101532.19;5040990;28;20086;-80
2023/01/22 09:00:04;;;;;;;3.40;0.63;;;;;;;8.33;100.00;101535.53;5064886;28;20025;-80
2023/01/22 09:02:30;;;;;;;7.88;0.80;;;;;;;8.32;100.00;101542.63;5034283;28;20111;-80
2023/01/22 09:04:56;;;;;;;3.40;0.60;;;;;;;8.35;100.00;101545.97;5051838;28;20029;-80
2023/01/22 09:07:21;;;;;;;0.73;0.40;;;;;;;8.36;100.00;101548.50;5053959;28;20496;-80
2023/01/22 09:09:47;;;;;;;3.15;0.57;;;;;;;8.39;100.00;101547.47;5062098;28;20043;-80
2023/01/22 09:12:13;;;;;;;1.30;0.60;;;;;;;8.40;100.00;101554.41;5029803;28;20040;-80
2023/01/22 09:14:38;;;;;;;1.77;0.50;;;;;;;8.41;100.00;101564.00;5046812;28;20029;-80
2023/01/22 09:17:04;;;;;;;2.90;0.57;;;;;;;8.42;100.00;101565.72;5036364;28;20036;-81
2023/01/22 09:19:30;;;;;;;4.53;0.55;;;;;;;8.41;100.00;101562.22;5062041;28;20028;-80
2023/01/22 09:21:55;;;;;;;4.85;0.57;;;;;;;8.41;100.00;101567.47;5040352;28;20123;-80
2023/01/22 09:24:21;;;;;;;1.25;0.63;;;;;;;8.41;100.00;101571.91;5059550;28;20460;-81
2023/01/22 09:26:47;;;;;;;4.85;0.70;;;;;;;8.43;100.00;101573.50;5041908;28;20087;-80
2023/01/22 09:29:13;;;;;;;2.40;0.55;;;;;;;8.43;100.00;101576.16;5020914;28;20037;-80
2023/01/22 09:31:38;;;;;;;1.35;0.40;;;;;;;8.44;100.00;101582.28;5057186;28;20029;-80
2023/01/22 09:34:04;;;;;;;1.55;0.50;;;;;;;8.45;100.00;101578.69;5056008;28;20032;-80
2023/01/22 09:36:30;;;;;;;1.13;0.43;;;;;;;8.47;100.00;101581.22;5051668;28;20033;-80
2023/01/22 09:38:56;;;;;;;3.60;0.50;;;;;;;8.49;100.00;101587.22;5055470;28;20064;-79
2023/01/22 09:41:33;;;;;;;1.80;0.60;;;;;;;8.52;100.00;101592.28;5050827;28;20099;-80
2023/01/22 09:44:01;;;;;;;1.25;0.70;;;;;;;8.49;100.00;101593.31;5046122;28;20095;-81
2023/01/22 09:46:38;;;;;;;5.18;0.68;;;;;;;8.51;100.00;101596.72;5055900;28;20083;-80
2023/01/22 09:49:15;;;;;;;3.35;0.93;;;;;;;8.52;100.00;101601.03;5053849;28;20683;-80
2023/01/22 09:51:47;;;;;;;2.85;0.70;;;;;;;8.50;100.00;101592.41;5055364;28;20946;-80
2023/01/22 09:54:16;;;;;;;5.10;0.70;;;;;;;8.50;100.00;101586.28;4997252;28;20538;-80
2023/01/22 09:56:44;;;;;;;2.78;1.27;;;;;;;8.55;100.00;101589.47;5053859;28;20056;-80
2023/01/22 09:59:19;;;;;;;2.08;0.52;;;;;;;8.58;100.00;101593.69;5037103;28;20090;-80
2023/01/22 10:01:49;;;;;;;2.22;0.73;;;;;;;8.57;100.00;101598.09;5050879;28;20037;-80
2023/01/22 10:04:42;;;;;;;2.58;0.68;;;;;;;8.63;100.00;101596.88;5030842;28;20064;-81
2023/01/22 10:07:23;;;;;;;1.92;0.63;;;;;;;8.62;100.00;101600.44;5062847;28;20522;-80
2023/01/22 10:09:53;;;;;;;2.35;0.60;;;;;;;8.64;100.00;101606.47;5055095;28;20417;-80
2023/01/22 10:12:19;;;;;;;5.00;0.60;;;;;;;8.61;100.00;101612.78;5043167;28;20033;-81
2023/01/22 10:14:45;;;;;;;3.28;0.90;;;;;;;8.63;100.00;101605.59;5052604;28;20036;-80
2023/01/22 10:17:24;;;;;;;1.00;0.65;;;;;;;8.69;100.00;101610.47;5056385;28;20032;-80
2023/01/22 10:19:58;;;;;;;2.85;0.60;;;;;;;8.72;100.00;101617.34;5043128;28;20036;-81
2023/01/22 10:22:25;;;;;;;5.03;1.02;;;;;;;8.73;100.00;101618.19;5071486;28;20048;-80
2023/01/22 10:24:52;;;;;;;3.40;1.15;;;;;;;8.76;100.00;101618.00;5056382;28;20051;-80
2023/01/22 10:27:24;;;;;;;2.00;0.60;;;;;;;8.81;100.00;101622.00;5024138;28;20040;-81
2023/01/22 10:30:20;;;;;;;2.50;0.70;;;;;;;8.84;100.00;101615.66;5035620;28;20035;-81
2023/01/22 10:32:57;;;;;;;2.05;0.60;;;;;;;8.91;100.00;101629.28;5036342;28;20110;-81
2023/01/22 10:35:23;;;;;;;2.13;0.60;;;;;;;8.88;100.00;101618.94;5057719;28;20025;-81
2023/01/22 10:37:54;;;;;;;1.38;0.50;;;;;;;8.95;100.00;101620.19;5033157;28;20371;-80
2023/01/22 10:40:21;;;;;;;3.95;0.70;;;;;;;8.95;100.00;101622.00;5041205;28;20036;-81
2023/01/22 10:43:03;;;;;;;1.05;0.52;;;;;;;9.01;100.00;101627.72;5021785;28;20044;-81
2023/01/22 10:45:29;;;;;;;2.45;0.60;;;;;;;9.02;100.00;101633.81;5022870;28;20389;-81
2023/01/22 10:48:14;;;;;;;2.17;0.45;;;;;;;9.08;100.00;101636.03;5050607;28;20036;-80
2023/01/22 10:50:42;;;;;;;2.25;0.60;;;;;;;9.08;100.00;101643.94;5006656;28;20033;-80
2023/01/22 10:53:23;;;;;;;3.45;0.68;;;;;;;9.11;100.00;101641.09;5038923;28;20095;-80
2023/01/22 10:55:55;;;;;;;1.88;0.63;;;;;;;9.14;100.00;101646.16;5028331;28;20098;-80
2023/01/22 10:58:23;;;;;;;0.82;0.40;;;;;;;9.18;100.00;101641.53;5039501;28;20498;-80
2023/01/22 11:01:05;;;;;;;1.95;0.40;;;;;;;9.24;100.00;101641.09;5052170;28;20024;-80
2023/01/22 11:03:33;;;;;;;1.40;0.50;;;;;;;9.23;100.00;101646.47;5017847;28;20039;-81
2023/01/22 11:06:16;;;;;;;4.28;0.40;;;;;;;9.26;100.00;101647.13;5039339;28;20020;-80
2023/01/22 11:08:47;;;;;;;1.08;0.40;;;;;;;9.29;100.00;101643.41;5068740;28;20604;-80
2023/01/22 11:11:16;;;;;;;5.22;1.77;;;;;;;9.28;100.00;101639.97;5014565;28;20473;-80
2023/01/22 11:13:53;;;;;;;0.90;0.30;;;;;;;9.32;100.00;101645.84;5045357;28;20166;-80
2023/01/22 11:16:22;;;;;;;3.00;0.35;;;;;;;9.32;100.00;101639.75;5023613;28;20025;-80
2023/01/22 11:18:58;;;;;;;2.67;0.35;;;;;;;9.36;100.00;101635.94;5048853;28;20028;-80
2023/01/22 11:21:32;;;;;;;2.67;0.20;;;;;;;9.38;100.00;101641.97;5033229;28;20043;-80
2023/01/22 11:24:22;;;;;;;2.70;0.30;;;;;;;9.40;100.00;101640.88;5034296;28;20033;-80
2023/01/22 11:27:22;;;;;;;1.90;0.28;;;;;;;9.43;100.00;101637.19;5042580;28;20075;-80
2023/01/22 11:30:03;;;;;;;0.50;0.30;;;;;;;9.41;100.00;101632.00;5044474;28;20056;-81
2023/01/22 11:32:29;;;;;;;0.88;0.55;;;;;;;9.47;100.00;101636.03;5034783;28;20033;-80
2023/01/22 11:35:13;;;;;;;4.57;0.70;;;;;;;9.54;100.00;101631.16;5047750;28;20502;-81
2023/01/22 11:38:09;;;;;;;0.82;0.17;;;;;;;9.59;100.00;101626.38;5027035;28;20112;-81
2023/01/22 11:40:53;;;;;;;1.17;0.40;;;;;;;9.60;100.00;101629.88;5063648;28;20481;-81